.
WxDataArchive / Data Records for 2014-09-01
2014-08-31 September 2014 2014-09-02

Data Records for Monday, 01 September 2014

Time	Temp	Chill	HIndex	Humid	Dewpt	 Wind 	HiWind	WindDir	Rain 	Barom
-----	----	-----	------	-----	-----	------	------	-------	-----	-----
00:00	72.3	72.3	72.3	87	68.2	0	0	---	0.00	29.891 
00:05	72.3	72.3	72.3	87	68.2	0	0	---	0.00	29.891 
00:10	72.1	72.1	72.1	88	68.3	0	0	---	0.00	29.891 
00:15	72.1	72.1	72.1	88	68.3	0	0	---	0.00	29.895 
00:20	72.0	72.0	72.0	88	68.2	0	0	---	0.00	29.895 
00:25	71.8	71.8	71.8	88	68.0	0	0	---	0.00	29.895 
00:30	71.8	71.8	71.8	89	68.4	0	0	---	0.00	29.898 
00:35	72.0	72.0	72.0	89	68.6	0	1	270	0.00	29.898 
00:40	72.1	72.1	72.1	90	69.0	0	1	270	0.00	29.898 
00:45	72.1	72.1	72.1	90	69.0	0	1	270	0.00	29.900 
00:50	72.1	72.1	72.1	90	69.0	0	1	270	0.00	29.900 
00:55	72.1	72.1	72.1	90	69.0	0	1	270	0.00	29.900 
01:00	72.3	72.3	72.3	90	69.2	0	1	270	0.00	29.910 
01:05	72.3	72.3	72.3	90	69.2	0	1	270	0.00	29.910 
01:10	72.3	72.3	72.3	90	69.2	0	1	270	0.00	29.910 
01:15	72.3	72.3	72.3	90	69.2	0	1	270	0.00	29.907 
01:20	72.1	72.1	72.1	90	69.0	0	0	---	0.00	29.907 
01:25	72.1	72.1	72.1	90	69.0	0	1	270	0.00	29.907 
01:30	72.1	72.1	72.1	90	69.0	0	0	---	0.00	29.908 
01:35	72.0	72.0	72.0	90	68.9	0	1	270	0.00	29.908 
01:40	72.0	72.0	72.0	90	68.9	0	1	270	0.00	29.908 
01:45	72.1	72.1	72.1	90	69.0	0	1	270	0.00	29.911 
01:50	72.1	72.1	72.1	90	69.0	0	0	---	0.00	29.911 
01:55	72.1	72.1	72.1	90	69.0	0	1	270	0.00	29.911 
02:00	72.3	72.3	72.3	90	69.2	0	1	270	0.00	29.908 
02:05	72.3	72.3	72.3	90	69.2	0	0	---	0.00	29.908 
02:10	72.3	72.3	72.3	90	69.2	0	1	270	0.00	29.908 
02:15	72.3	72.3	72.3	90	69.2	0	1	270	0.00	29.907 
02:20	72.3	72.3	72.3	90	69.2	0	1	270	0.00	29.907 
02:25	72.3	72.3	72.3	90	69.2	0	1	270	0.00	29.907 
02:30	72.3	72.3	72.3	90	69.2	0	1	270	0.00	29.903 
02:35	72.3	72.3	72.3	90	69.2	0	1	270	0.00	29.903 
02:40	72.3	72.3	72.3	90	69.2	0	1	270	0.00	29.903 
02:45	72.3	72.3	72.3	90	69.2	0	0	---	0.00	29.897 
02:50	72.1	72.1	72.1	90	69.0	0	0	---	0.00	29.897 
02:55	72.1	72.1	72.1	90	69.0	0	0	---	0.00	29.897 
03:00	72.0	72.0	72.0	90	68.9	0	0	---	0.00	29.894 
03:05	72.0	72.0	72.0	90	68.9	0	0	---	0.00	29.894 
03:10	71.8	71.8	71.8	90	68.7	0	1	270	0.00	29.894 
03:15	71.8	71.8	71.8	90	68.7	0	1	270	0.00	29.892 
03:20	71.8	71.8	71.8	91	69.0	0	0	---	0.00	29.892 
03:25	71.6	71.6	71.6	91	68.8	0	1	270	0.00	29.892 
03:30	71.5	71.5	71.5	91	68.7	0	1	270	0.00	29.892 
03:35	71.5	71.5	71.5	91	68.7	0	1	270	0.00	29.892 
03:40	71.3	71.3	71.3	91	68.5	0	0	---	0.00	29.892 
03:45	71.3	71.3	71.3	91	68.5	0	1	270	0.00	29.892 
03:50	71.1	71.1	71.1	91	68.3	0	1	270	0.00	29.892 
03:55	71.1	71.1	71.1	92	68.7	0	1	270	0.00	29.892 
04:00	70.9	70.9	70.9	92	68.5	0	1	270	0.00	29.889 
04:05	70.9	70.9	70.9	92	68.5	0	1	270	0.00	29.889 
04:10	70.9	70.9	70.9	92	68.5	0	1	270	0.00	29.889 
04:15	70.8	70.8	70.8	92	68.4	0	1	270	0.00	29.883 
04:20	70.8	70.8	70.8	92	68.4	0	1	270	0.00	29.883 
04:25	70.6	70.6	70.6	92	68.2	0	1	270	0.00	29.883 
04:30	70.6	70.6	70.6	92	68.2	0	1	270	0.00	29.879 
04:35	70.6	70.6	70.6	92	68.2	0	1	270	0.00	29.879 
04:40	70.4	70.4	70.4	93	68.3	0	0	---	0.00	29.879 
04:45	70.4	70.4	70.4	93	68.3	0	1	270	0.00	29.881 
04:50	70.4	70.4	70.4	93	68.3	0	0	---	0.00	29.881 
04:55	70.3	70.3	70.3	93	68.2	0	0	---	0.00	29.881 
05:00	70.3	70.3	70.3	93	68.2	0	1	270	0.00	29.882 
05:05	70.3	70.3	70.3	93	68.2	0	0	---	0.00	29.882 
05:10	70.3	70.3	70.3	93	68.2	0	1	270	0.00	29.882 
05:15	70.1	70.1	70.1	93	68.0	0	0	---	0.00	29.881 
05:20	70.1	70.1	70.1	93	68.0	0	1	270	0.00	29.881 
05:25	70.1	70.1	70.1	93	68.0	0	0	---	0.00	29.881 
05:30	70.1	70.1	70.1	93	68.0	0	0	---	0.00	29.879 
05:35	70.1	70.1	70.1	94	68.3	0	1	270	0.00	29.879 
05:40	70.1	70.1	70.1	94	68.3	0	0	---	0.00	29.879 
05:45	70.1	70.1	70.1	94	68.3	0	0	---	0.00	29.876 
05:50	69.9	69.9	69.9	94	68.1	0	0	---	0.00	29.876 
05:55	69.9	69.9	69.9	94	68.1	0	0	---	0.00	29.876 
06:00	69.9	69.9	69.9	94	68.1	0	0	---	0.00	29.873 
06:05	69.9	69.9	69.9	94	68.1	0	0	---	0.00	29.873 
06:10	69.9	69.9	69.9	94	68.1	0	0	---	0.00	29.873 
06:15	69.9	69.9	69.9	94	68.1	0	1	270	0.00	29.878 
06:20	70.1	70.1	70.1	94	68.3	0	0	---	0.00	29.878 
06:25	70.1	70.1	70.1	94	68.3	0	1	270	0.00	29.878 
06:30	70.1	70.1	70.1	94	68.3	0	0	---	0.00	29.872 
06:35	70.1	70.1	70.1	94	68.3	0	1	270	0.00	29.872 
06:40	70.3	70.3	70.3	94	68.5	0	1	270	0.00	29.872 
06:45	70.3	70.3	70.3	94	68.5	0	1	270	0.00	29.869 
06:50	70.3	70.3	70.3	94	68.5	0	2	270	0.00	29.869 
06:55	70.3	70.3	70.3	94	68.5	0	1	270	0.00	29.869 
07:00	70.3	70.3	70.3	94	68.5	0	1	270	0.00	29.867 
07:05	70.4	70.4	70.4	94	68.6	0	1	270	0.00	29.867 
07:10	70.4	70.4	70.4	94	68.6	0	0	---	0.00	29.867 
07:15	70.4	70.4	70.4	94	68.6	0	0	---	0.00	29.872 
07:20	70.6	70.6	70.6	94	68.8	0	1	270	0.00	29.872 
07:25	70.6	70.6	70.6	94	68.8	0	1	270	0.00	29.872 
07:30	70.6	70.6	70.6	94	68.8	0	1	270	0.00	29.880 
07:35	70.8	70.8	70.8	94	69.0	0	1	270	0.00	29.880 
07:40	70.8	70.8	70.8	94	69.0	0	4	68	0.00	29.880 
07:45	70.9	70.9	70.9	94	69.1	0	3	68	0.00	29.870 
07:50	70.9	70.9	70.9	94	69.1	0	1	68	0.00	29.870 
07:55	71.1	71.1	71.1	94	69.3	0	2	68	0.00	29.870 
08:00	71.1	71.1	71.1	94	69.3	0	2	45	0.00	29.866 
08:05	71.3	71.3	71.3	94	69.5	0	2	45	0.00	29.866 
08:10	71.3	71.3	71.3	94	69.5	0	1	45	0.00	29.866 
08:15	71.5	71.5	71.5	94	69.7	0	2	270	0.00	29.867 
08:20	71.5	71.5	71.5	93	69.4	0	2	292	0.00	29.867 
08:25	71.6	71.6	71.6	93	69.5	0	2	292	0.00	29.867 
08:30	71.6	71.6	71.6	93	69.5	0	2	292	0.00	29.870 
08:35	71.8	71.8	71.8	93	69.7	0	2	292	0.00	29.870 
08:40	72.0	72.0	72.0	93	69.9	0	2	292	0.00	29.870 
08:45	72.1	72.1	72.1	93	70.0	0	3	292	0.00	29.868 
08:50	72.3	72.3	72.3	93	70.2	0	2	292	0.00	29.868 
08:55	72.3	72.3	72.3	93	70.2	0	1	292	0.00	29.868 
09:00	72.5	72.5	72.5	92	70.0	0	1	292	0.00	29.866 
09:05	72.5	72.5	72.5	92	70.0	0	1	292	0.00	29.866 
09:10	72.7	72.7	72.7	92	70.2	0	5	270	0.00	29.866 
09:15	72.7	72.7	72.7	92	70.2	1	4	270	0.00	29.861 
09:20	72.8	72.8	72.8	92	70.3	0	2	90	0.00	29.861 
09:25	73.2	73.2	73.2	92	70.7	1	5	90	0.00	29.861 
09:30	73.3	73.3	73.3	92	70.8	0	1	90	0.00	29.855 
09:35	73.7	73.7	73.7	91	70.9	0	2	90	0.00	29.855 
09:40	73.9	73.9	73.9	91	71.1	1	3	315	0.00	29.855 
09:45	73.9	73.9	73.9	90	70.8	0	2	22	0.00	29.852 
09:50	74.0	74.0	74.0	90	70.9	0	2	22	0.00	29.852 
09:55	74.2	74.2	74.2	90	71.1	0	2	338	0.00	29.852 
10:00	74.4	74.4	74.4	89	70.9	0	2	338	0.00	29.848 
10:05	74.4	74.4	74.4	89	70.9	1	4	270	0.00	29.848 
10:10	74.6	74.6	74.6	88	70.8	1	4	68	0.00	29.848 
10:15	74.7	74.7	74.7	88	70.9	1	6	90	0.00	29.848 
10:20	75.1	75.1	74.7	87	71.0	0	1	90	0.00	29.848 
10:25	75.4	75.4	75.3	87	71.2	1	7	90	0.00	29.848 
10:30	75.8	75.8	76.1	86	71.3	1	3	270	0.00	29.838 
10:35	76.1	76.1	76.8	84	70.9	1	5	292	0.00	29.838 
10:40	76.5	76.5	77.5	84	71.3	1	4	90	0.00	29.838 
10:45	76.8	76.8	78.1	83	71.2	1	4	270	0.00	29.834 
10:50	77.2	77.2	78.9	82	71.3	1	3	248	0.00	29.834 
10:55	77.4	77.4	79.2	81	71.1	1	4	292	0.00	29.834 
11:00	77.7	77.7	79.8	80	71.0	1	3	68	0.00	29.830 
11:05	78.1	78.1	80.5	79	71.0	0	2	45	0.00	29.830 
11:10	78.5	78.5	81.2	79	71.4	0	3	248	0.00	29.830 
11:15	79.0	79.0	82.0	78	71.5	1	11	225	0.00	29.822 
11:20	79.8	79.8	83.6	78	72.3	1	3	68	0.00	29.822 
11:25	80.3	80.3	84.0	74	71.2	2	7	90	0.00	29.822 
11:30	80.1	80.1	83.6	74	71.0	2	6	248	0.00	29.822 
11:35	79.9	79.9	83.4	75	71.2	1	5	45	0.00	29.822 
11:40	79.8	79.8	83.2	75	71.1	1	6	90	0.00	29.822 
11:45	79.8	79.8	83.2	75	71.1	1	4	90	0.00	29.815 
11:50	79.9	79.9	83.3	74	70.8	1	4	22	0.00	29.815 
11:55	80.1	80.1	83.6	74	71.0	1	3	292	0.00	29.815 
12:00	80.5	80.5	84.2	73	71.0	1	7	90	0.00	29.813 
12:05	80.5	80.5	84.2	73	71.0	1	5	315	0.00	29.813 
12:10	80.9	80.9	85.0	73	71.4	1	6	68	0.00	29.813 
12:15	81.2	81.2	85.5	73	71.7	1	6	315	0.00	29.804 
12:20	81.4	81.4	85.3	70	70.7	2	6	270	0.00	29.804 
12:25	81.6	81.6	85.9	71	71.3	1	3	270	0.00	29.804 
12:30	81.8	81.8	86.3	71	71.5	1	3	270	0.00	29.800 
12:35	81.6	81.6	85.9	71	71.3	1	3	270	0.00	29.800 
12:40	81.6	81.6	85.9	71	71.3	1	4	270	0.00	29.800 
12:45	81.4	81.4	85.3	70	70.7	2	6	270	0.00	29.803 
12:50	81.4	81.4	85.3	70	70.7	1	5	22	0.00	29.803 
12:55	81.4	81.4	85.3	70	70.7	2	5	270	0.00	29.803 
13:00	81.4	81.4	85.3	70	70.7	1	7	270	0.00	29.805 
13:05	82.0	82.0	86.2	69	70.8	2	5	292	0.00	29.805 
13:10	82.8	82.8	87.5	68	71.1	1	5	270	0.00	29.805 
13:15	83.2	83.2	88.0	67	71.1	1	4	315	0.00	29.802 
13:20	83.6	83.6	88.2	65	70.6	2	9	315	0.00	29.802 
13:25	83.2	83.2	87.5	65	70.2	1	6	315	0.00	29.802 
13:30	82.8	82.8	87.2	67	70.7	2	5	270	0.00	29.799 
13:35	83.0	83.0	87.6	67	70.9	1	6	248	0.00	29.799 
13:40	83.2	83.2	87.7	66	70.6	1	3	112	0.00	29.799 
13:45	83.2	83.2	87.7	66	70.6	2	6	292	0.00	29.783 
13:50	83.4	83.4	87.8	65	70.4	2	5	270	0.00	29.783 
13:55	83.8	83.8	88.0	63	69.8	2	5	315	0.00	29.783 
14:00	84.1	84.1	88.2	62	69.6	2	6	270	0.00	29.771 
14:05	84.3	84.3	88.6	62	69.8	1	3	315	0.00	29.771 
14:10	84.3	84.3	88.6	62	69.8	1	4	68	0.00	29.771 
14:15	84.3	84.3	88.6	62	69.8	1	3	292	0.00	29.768 
14:20	84.5	84.5	88.7	61	69.5	2	5	292	0.00	29.768 
14:25	84.5	84.5	89.0	62	70.0	1	4	292	0.00	29.768 
14:30	84.1	84.1	88.0	61	69.2	2	6	292	0.00	29.778 
14:35	83.8	83.8	87.5	61	68.9	2	5	248	0.00	29.778 
14:40	84.0	84.0	87.8	61	69.1	2	6	270	0.00	29.778 
14:45	84.0	84.0	87.8	61	69.1	1	5	292	0.00	29.773 
14:50	84.0	84.0	88.1	62	69.5	2	10	270	0.00	29.773 
14:55	83.8	83.8	87.7	62	69.4	1	7	292	0.00	29.773 
15:00	83.4	83.4	87.3	63	69.5	1	6	270	0.00	29.776 
15:05	83.2	83.2	87.2	64	69.7	1	5	270	0.00	29.776 
15:10	83.2	83.2	87.2	64	69.7	1	4	270	0.00	29.776 
15:15	82.8	82.8	86.5	64	69.3	2	10	338	0.00	29.771 
15:20	82.6	82.6	86.4	65	69.6	1	5	248	0.00	29.771 
15:25	82.4	82.4	86.3	66	69.9	0	4	45	0.00	29.771 
15:30	82.4	82.4	86.3	66	69.9	1	5	270	0.00	29.773 
15:35	82.4	82.4	86.3	66	69.9	1	5	248	0.00	29.773 
15:40	83.0	83.0	87.3	66	70.4	2	4	315	0.00	29.773 
15:45	83.4	83.4	87.6	64	69.9	1	6	22	0.00	29.762 
15:50	83.4	83.4	87.3	63	69.5	2	11	315	0.00	29.762 
15:55	83.4	83.4	87.6	64	69.9	1	6	248	0.00	29.762 
16:00	83.2	83.2	87.2	64	69.7	2	9	90	0.00	29.755 
16:05	83.0	83.0	87.1	65	70.0	2	4	248	0.00	29.755 
16:10	82.8	82.8	87.0	66	70.3	1	4	248	0.00	29.755 
16:15	83.0	83.0	87.3	66	70.4	1	3	248	0.00	29.755 
16:20	83.4	83.4	87.8	65	70.4	1	6	248	0.00	29.755 
16:25	83.4	83.4	87.6	64	69.9	1	6	270	0.00	29.755 
16:30	83.2	83.2	87.2	64	69.7	2	9	270	0.00	29.757 
16:35	83.0	83.0	86.9	64	69.5	2	5	270	0.00	29.757 
16:40	82.8	82.8	86.7	65	69.8	1	3	248	0.00	29.757 
16:45	82.8	82.8	86.7	65	69.8	1	5	270	0.00	29.761 
16:50	82.4	82.4	86.3	66	69.9	1	7	292	0.00	29.761 
16:55	82.0	82.0	85.8	67	69.9	1	3	270	0.00	29.761 
17:00	81.8	81.8	85.7	68	70.2	1	3	270	0.00	29.757 
17:05	81.6	81.6	86.1	72	71.7	1	3	248	0.00	29.757 
17:10	80.9	80.9	85.3	75	72.2	0	3	248	0.00	29.757 
17:15	80.1	80.1	84.0	77	72.2	0	3	248	0.00	29.758 
17:20	79.8	79.8	83.6	78	72.3	0	3	22	0.00	29.758 
17:25	79.8	79.8	83.6	78	72.3	1	4	270	0.00	29.758 
17:30	80.1	80.1	84.3	79	73.0	0	2	270	0.00	29.765 
17:35	80.1	80.1	84.2	78	72.6	1	3	270	0.00	29.765 
17:40	80.9	80.9	85.8	78	73.4	0	2	270	0.00	29.765 
17:45	81.2	81.2	85.3	72	71.3	2	5	270	0.00	29.768 
17:50	81.6	81.6	86.3	73	72.1	0	3	270	0.00	29.768 
17:55	81.6	81.6	85.5	69	70.4	1	4	292	0.00	29.768 
18:00	81.8	81.8	85.9	69	70.6	0	2	292	0.00	29.769 
18:05	81.8	81.8	85.7	68	70.2	0	3	292	0.00	29.769 
18:10	81.8	81.8	85.5	67	69.7	1	3	225	0.00	29.769 
18:15	81.6	81.6	85.5	69	70.4	0	3	338	0.00	29.770 
18:20	81.4	81.4	85.1	69	70.2	1	4	292	0.00	29.770 
18:25	81.2	81.2	84.8	69	70.0	1	3	292	0.00	29.770 
18:30	81.2	81.2	84.8	69	70.0	0	3	292	0.00	29.771 
18:35	81.2	81.2	85.0	70	70.5	0	2	292	0.00	29.771 
18:40	81.2	81.2	85.0	70	70.5	1	3	292	0.00	29.771 
18:45	81.2	81.2	85.0	70	70.5	1	3	248	0.00	29.771 
18:50	81.1	81.1	85.0	71	70.8	1	5	270	0.00	29.771 
18:55	80.9	80.9	84.5	70	70.2	1	6	270	0.00	29.771 
19:00	80.7	80.7	84.3	71	70.4	0	1	270	0.00	29.772 
19:05	80.5	80.5	83.9	71	70.2	1	4	270	0.00	29.772 
19:10	80.3	80.3	83.6	71	70.0	0	3	270	0.00	29.772 
19:15	80.3	80.3	83.4	70	69.6	1	5	315	0.00	29.773 
19:20	80.3	80.3	83.6	71	70.0	0	3	315	0.00	29.773 
19:25	80.1	80.1	83.1	70	69.4	1	5	270	0.00	29.773 
19:30	80.1	80.1	83.1	70	69.4	0	3	248	0.00	29.776 
19:35	80.1	80.1	83.1	70	69.4	1	4	248	0.00	29.776 
19:40	80.1	80.1	83.2	71	69.8	0	2	292	0.00	29.776 
19:45	79.9	79.9	82.9	71	69.6	0	2	292	0.00	29.776 
19:50	79.8	79.8	82.9	72	69.9	0	1	292	0.00	29.776 
19:55	79.6	79.6	82.5	72	69.8	0	3	292	0.00	29.776 
20:00	79.6	79.6	82.5	72	69.8	0	3	292	0.00	29.783 
20:05	79.4	79.4	82.2	72	69.6	0	2	292	0.00	29.783 
20:10	79.2	79.2	81.9	72	69.4	0	1	292	0.00	29.783 
20:15	79.2	79.2	81.9	72	69.4	0	2	270	0.00	29.784 
20:20	79.0	79.0	81.6	72	69.2	1	3	270	0.00	29.784 
20:25	79.0	79.0	81.6	72	69.2	0	2	270	0.00	29.784 
20:30	79.0	79.0	81.6	72	69.2	0	2	270	0.00	29.783 
20:35	78.8	78.8	81.3	73	69.4	0	3	270	0.00	29.783 
20:40	78.8	78.8	81.3	73	69.4	0	3	315	0.00	29.783 
20:45	78.6	78.6	81.0	73	69.2	0	3	315	0.00	29.784 
20:50	78.5	78.5	80.9	74	69.5	0	1	225	0.00	29.784 
20:55	78.3	78.3	80.6	75	69.7	0	1	225	0.00	29.784 
21:00	78.1	78.1	80.3	75	69.5	0	2	225	0.00	29.788 
21:05	77.9	77.9	80.0	75	69.3	0	1	225	0.00	29.788 
21:10	77.7	77.7	79.7	74	68.7	0	2	225	0.00	29.788 
21:15	77.6	77.6	79.6	74	68.6	0	1	225	0.00	29.787 
21:20	77.4	77.4	79.3	74	68.4	0	2	225	0.00	29.787 
21:25	77.4	77.4	79.3	74	68.4	0	3	225	0.00	29.787 
21:30	77.4	77.4	79.3	74	68.4	0	1	225	0.00	29.798 
21:35	77.2	77.2	79.0	75	68.6	0	0	---	0.00	29.798 
21:40	77.0	77.0	78.7	75	68.5	0	1	225	0.00	29.798 
21:45	76.8	76.8	78.4	75	68.3	0	1	225	0.00	29.805 
21:50	76.7	76.7	78.2	76	68.5	0	1	225	0.00	29.805 
21:55	76.5	76.5	78.0	76	68.4	0	0	---	0.00	29.805 
22:00	76.3	76.3	77.6	77	68.5	0	1	225	0.00	29.814 
22:05	76.1	76.1	77.4	77	68.3	0	2	225	0.00	29.814 
22:10	76.1	76.1	77.4	76	68.0	0	3	225	0.00	29.814 
22:15	76.0	76.0	77.4	75	67.5	0	2	248	0.00	29.817 
22:20	76.0	76.0	77.4	75	67.5	0	1	248	0.00	29.817 
22:25	76.0	76.0	77.4	74	67.1	0	2	248	0.00	29.817 
22:30	75.8	75.8	77.2	74	66.9	0	2	248	0.00	29.823 
22:35	75.8	75.8	77.2	74	66.9	0	1	248	0.00	29.823 
22:40	75.6	75.6	77.0	74	66.7	0	2	248	0.00	29.823 
22:45	75.6	75.6	77.0	74	66.7	1	5	248	0.00	29.830 
22:50	75.6	75.6	77.0	73	66.3	0	3	270	0.00	29.830 
22:55	75.6	75.6	77.0	73	66.3	0	3	270	0.00	29.830 
23:00	75.6	75.6	77.0	73	66.3	0	2	270	0.00	29.834 
23:05	75.4	75.4	76.8	73	66.1	0	4	270	0.00	29.834 
23:10	75.3	75.3	76.8	72	65.6	1	4	270	0.00	29.834 
23:15	75.3	75.3	76.8	72	65.6	0	2	270	0.00	29.832 
23:20	75.1	75.1	76.6	72	65.4	0	3	270	0.00	29.832 
23:25	74.9	74.9	74.9	72	65.2	1	3	270	0.00	29.832 
23:30	74.9	74.9	74.9	72	65.2	1	2	270	0.00	29.832 
23:35	74.7	74.7	74.7	73	65.5	0	3	270	0.00	29.832 
23:40	74.6	74.6	74.6	73	65.4	0	1	270	0.00	29.832 
23:45	74.4	74.4	74.4	74	65.6	0	2	270	0.00	29.843 
23:50	74.2	74.2	74.2	74	65.4	0	3	270	0.00	29.843 
23:55	74.0	74.0	74.0	75	65.6	0	2	270	0.00	29.843 

CoCoRaHS
IN-AL-39
A2 Web Hosting
Creative Commons License
GoDaddy
search engine by freefind advanced

loaded 2018-11-18 11:26:18 • last modified 2010-11-18 10:43:29
Privacy PolicyDisclaimer
• wx.awcolley.com is powered by PmWiki v.2002016 •
• all content (unless otherwise noted) © 2018 A W Colley